createdAt,value
2019-01-25T20:30:39.892Z,77.53
2019-01-25T20:33:09.518Z,65.27
2019-01-25T20:35:41.004Z,64.15
2019-01-25T20:38:11.205Z,70.12
2019-01-25T20:40:40.867Z,71.63
2019-01-25T20:43:10.471Z,78.77
2019-01-25T20:45:40.492Z,79.70
2019-01-25T20:48:10.138Z,72.57
2019-01-25T20:50:39.880Z,79.07
2019-01-25T20:53:11.120Z,74.67
2019-01-25T20:55:40.783Z,70.10
2019-01-25T20:58:10.453Z,79.00
2019-01-25T21:00:40.622Z,81.63
2019-01-25T21:03:12.576Z,83.00
2019-01-25T21:05:42.413Z,73.33
2019-01-25T21:08:12.254Z,75.57
2019-01-25T21:10:43.810Z,72.07
2019-01-25T21:13:13.745Z,73.93
2019-01-25T21:15:43.385Z,70.83
2019-01-25T21:18:13.136Z,75.13
2019-01-25T21:20:44.836Z,76.10
2019-01-25T21:23:14.990Z,69.57
2019-01-25T21:25:44.726Z,70.23
2019-01-25T21:28:16.182Z,85.87
2019-01-25T21:30:45.966Z,69.50
2019-01-25T21:33:15.507Z,76.65
2019-01-25T21:35:45.338Z,70.17
2019-01-25T21:38:14.917Z,90.53
2019-01-25T21:40:44.795Z,78.17
2019-01-25T21:43:14.350Z,81.90
2019-01-25T21:45:44.186Z,89.33
2019-01-25T21:48:16.136Z,74.50
2019-01-25T21:50:46.724Z,79.83
2019-01-25T21:53:16.980Z,86.30
2019-01-25T21:55:46.838Z,79.50
2019-01-25T21:58:16.629Z,80.37
2019-01-25T22:00:46.316Z,78.50
2019-01-25T22:03:16.011Z,73.30
2019-01-25T22:05:45.608Z,87.43
2019-01-25T22:08:15.200Z,67.50
2019-01-25T22:10:46.881Z,78.77
2019-01-25T22:13:16.706Z,78.33
2019-01-25T22:15:51.071Z,66.00
2019-01-25T22:18:17.705Z,62.67
2019-01-25T22:20:47.268Z,68.85
2019-01-25T22:23:17.214Z,58.80
2019-01-25T22:25:46.723Z,51.97
2019-01-25T22:28:17.850Z,51.77
2019-01-25T22:30:47.490Z,45.40
2019-01-25T22:33:17.255Z,47.50
2019-01-25T22:35:47.091Z,42.93
2019-01-25T22:38:16.596Z,40.50
2019-01-25T22:40:46.351Z,37.30
2019-01-25T22:43:15.980Z,45.63
2019-01-25T22:45:45.566Z,37.57
2019-01-25T22:48:16.161Z,36.65
2019-01-25T22:50:45.679Z,40.83
2019-01-25T22:53:15.525Z,39.03
2019-01-25T22:55:45.270Z,39.83
2019-01-25T22:58:15.038Z,36.40
2019-01-25T23:01:08.684Z,36.63
2019-01-25T23:03:45.873Z,34.47
2019-01-25T23:06:45.827Z,36.20
2019-01-25T23:09:28.092Z,40.20
2019-01-25T23:11:57.631Z,31.27
2019-01-25T23:14:27.212Z,30.57
2019-01-25T23:16:56.824Z,41.93
2019-01-25T23:19:26.371Z,34.13
2019-01-25T23:21:55.941Z,26.10
2019-01-25T23:24:25.704Z,31.00
2019-01-25T23:26:55.206Z,31.10
2019-01-25T23:29:24.762Z,28.03
2019-01-25T23:31:54.259Z,29.15
2019-01-25T23:34:24.128Z,34.47
2019-01-25T23:36:53.640Z,29.47
2019-01-25T23:39:23.172Z,35.50
2019-01-25T23:41:52.933Z,33.77
2019-01-25T23:44:22.477Z,34.65
2019-01-25T23:46:52.211Z,29.83
2019-01-25T23:49:21.853Z,41.83
2019-01-25T23:51:51.393Z,43.00
2019-01-25T23:54:20.913Z,30.37
2019-01-25T23:56:51.001Z,32.43
2019-01-25T23:59:20.728Z,31.53
